Main page
METAR-TAF:

METAR-TAF

Airports :

Brighton City Airport (Shoreham Airport)

Brighton, England

latitude: 50-50N, longitude: 000-17W, elevation: 2 m

Current weather observation

The report was made 11 hours and 11 minutes ago, at 18:50 UTC
Wind 4 kt from the Southeast
Temperature 16°C
Humidity 94%
Pressure 1013 hPa
Visibility 10 km or more
Few clouds at a height of 1100 ft

METAR: EGKA 251850Z 13004KT 9999 FEW011 16/15 Q1013

Time: 07:01 (06:01 UTC)

Forecast

The report was made 16 hours and 4 minutes ago, at 13:57 UTC
Forecast valid from 25 at 15 UTC to 25 at 19 UTC
Wind 5 kt from the South/Southwest
Visibility 10 km or more
Scattered clouds at a height of 1500 ft
Probability 30% :
Temporary
from 25 at 15 UTC to 25 at 19 UTC
Broken clouds at a height of 1200 ft

TAF: EGKA 251357Z 2515/2519 20005KT 9999 SCT015 PROB30 TEMPO 2515/2519 BKN012

Weather observations and forecasts of more than 4000 airports (METAR and TAF reports).

The available stations are represented by yellow and red dots on the map.

Hover mouse over dot to see the name of the station.

Then click to see weather observations and forecasts.

To change the map : click on the green buttons with a black cross to zoom in, on the green button with a dash to zoom out, or on the green arrows for adjacent maps.


METAR-TAF: